Time;durP1;ratioP1;P1;durP2;ratioP2;P2;SDS_P1;SDS_P2;PMS_P1;PMS_P2;Temp;Humidity;BMP_temperature;BMP_pressure;BME280_temperature;BME280_humidity;BME280_pressure;Samples;Min_cycle;Max_cycle;Signal;HPM_P1;HPM_P2
2022/07/11 00:01:37;;;;;;;348.38;271.15;;;;;;;20.88;79.32;99537.75;5097804;28;20089;-79
2022/07/11 00:04:02;;;;;;;413.83;307.85;;;;;;;20.94;79.00;99534.28;5115911;28;20104;-80
2022/07/11 00:06:28;;;;;;;409.00;302.50;;;;;;;20.91;78.24;99521.06;5115959;28;20554;-79
2022/07/11 00:08:54;;;;;;;364.23;269.90;;;;;;;20.99;78.70;99540.03;5115925;28;20063;-79
2022/07/11 00:11:20;;;;;;;329.75;263.88;;;;;;;20.98;79.01;99544.59;5097723;28;20044;-79
2022/07/11 00:13:46;;;;;;;379.90;295.52;;;;;;;20.93;79.32;99551.63;5080861;28;20039;-79
2022/07/11 00:16:13;;;;;;;379.25;286.67;;;;;;;20.87;79.33;99547.75;5115737;28;20047;-79
2022/07/11 00:18:39;;;;;;;441.35;323.98;;;;;;;20.92;78.63;99553.50;5097370;28;20059;-79
2022/07/11 00:21:05;;;;;;;434.30;314.42;;;;;;;20.98;78.31;99560.06;5097577;28;20043;-79
2022/07/11 00:23:31;;;;;;;387.45;297.13;;;;;;;20.89;78.50;99545.72;5115598;28;20519;-79
2022/07/11 00:25:56;;;;;;;266.08;202.68;;;;;;;20.95;78.42;99564.00;5097244;28;20062;-79
2022/07/11 00:28:22;;;;;;;231.75;173.77;;;;;;;20.88;79.10;99564.91;5097474;28;20044;-81
2022/07/11 00:30:48;;;;;;;299.15;223.75;;;;;;;20.93;78.59;99568.75;5097562;28;20458;-80
2022/07/11 00:33:14;;;;;;;246.75;176.93;;;;;;;21.02;78.18;99578.50;5080295;28;20042;-80
2022/07/11 00:35:40;;;;;;;207.30;141.10;;;;;;;21.05;77.21;99575.44;5115076;28;20130;-80
2022/07/11 00:38:05;;;;;;;192.85;134.75;;;;;;;21.07;77.46;99578.81;5115643;28;20493;-81
2022/07/11 00:40:31;;;;;;;204.18;140.55;;;;;;;21.14;76.87;99575.34;5115343;28;20099;-79
2022/07/11 00:42:57;;;;;;;167.50;114.85;;;;;;;21.13;76.84;99571.78;5097135;28;20036;-80
2022/07/11 00:45:22;;;;;;;187.63;130.15;;;;;;;21.26;76.40;99584.75;5097151;28;20450;-81
2022/07/11 00:47:48;;;;;;;166.70;118.18;;;;;;;21.29;75.86;99582.50;5097019;28;20039;-81
2022/07/11 00:50:14;;;;;;;156.45;105.90;;;;;;;21.33;75.93;99577.59;5115342;28;20409;-81
2022/07/11 00:52:41;;;;;;;150.95;107.03;;;;;;;21.42;75.87;99587.31;5097105;28;20048;-81
2022/07/11 00:55:09;;;;;;;174.40;116.80;;;;;;;21.47;75.45;99584.88;5114979;28;20036;-81
2022/07/11 00:57:36;;;;;;;196.48;145.38;;;;;;;21.50;75.08;99581.78;5079225;28;20593;-81
2022/07/11 01:00:04;;;;;;;230.45;169.60;;;;;;;21.56;75.20;99580.22;5096949;28;20047;-81
2022/07/11 01:02:30;;;;;;;204.93;157.52;;;;;;;21.57;75.23;99582.72;5096646;28;20047;-80
2022/07/11 01:04:56;;;;;;;181.15;148.20;;;;;;;21.54;74.94;99580.38;5115003;28;20050;-81
2022/07/11 01:07:22;;;;;;;172.13;134.93;;;;;;;21.46;75.21;99580.47;5115012;28;20126;-81
2022/07/11 01:09:50;;;;;;;183.07;142.52;;;;;;;21.62;75.21;99597.66;5114742;28;20127;-80
2022/07/11 01:12:15;;;;;;;183.48;141.70;;;;;;;21.66;75.02;99588.06;5096539;28;20124;-81
2022/07/11 01:14:51;;;;;;;178.15;141.57;;;;;;;21.74;74.64;99596.13;5114679;28;20473;-81
2022/07/11 01:17:17;;;;;;;167.90;132.23;;;;;;;21.76;73.96;99591.34;5079455;28;20036;-82
2022/07/11 01:19:43;;;;;;;136.10;114.60;;;;;;;21.88;73.98;99595.28;5096702;28;20051;-81
2022/07/11 01:22:13;;;;;;;154.57;124.85;;;;;;;21.86;73.89;99602.81;5114889;28;20085;-81
2022/07/11 01:24:39;;;;;;;128.32;107.47;;;;;;;21.87;73.30;99599.03;5114502;28;20039;-81
2022/07/11 01:27:05;;;;;;;106.80;93.93;;;;;;;21.90;73.07;99597.84;5079536;28;20039;-81
2022/07/11 01:29:31;;;;;;;124.03;102.03;;;;;;;21.89;73.62;99602.44;5096704;28;20080;-80
2022/07/11 01:31:57;;;;;;;100.68;86.50;;;;;;;21.93;73.15;99598.28;5115966;28;20578;-81
2022/07/11 01:34:22;;;;;;;86.82;71.15;;;;;;;21.92;73.08;99596.59;5115695;28;20070;-81
2022/07/11 01:36:48;;;;;;;74.95;64.53;;;;;;;22.03;72.38;99601.53;5095965;28;20062;-80
2022/07/11 01:39:14;;;;;;;79.70;62.67;;;;;;;22.02;72.27;99599.88;5114686;28;20489;-81
2022/07/11 01:41:40;;;;;;;68.65;53.25;;;;;;;22.15;71.92;99596.47;5079890;28;20046;-80
2022/07/11 01:44:06;;;;;;;62.17;49.97;;;;;;;22.26;71.23;99609.59;5096126;28;20039;-79
2022/07/11 01:46:32;;;;;;;50.97;37.58;;;;;;;22.31;71.05;99611.78;5096982;28;20487;-81
2022/07/11 01:48:58;;;;;;;46.58;37.90;;;;;;;22.28;70.59;99604.81;5115099;28;20043;-80
2022/07/11 01:51:25;;;;;;;42.13;35.45;;;;;;;22.26;70.60;99615.03;5096678;28;20063;-83
2022/07/11 01:53:51;;;;;;;45.13;33.63;;;;;;;22.28;70.85;99612.16;5096791;28;20081;-82
2022/07/11 01:56:16;;;;;;;40.38;32.28;;;;;;;22.37;69.89;99608.25;5096366;28;20048;-81
2022/07/11 01:58:42;;;;;;;48.55;31.52;;;;;;;22.28;70.21;99617.59;5096219;28;20035;-80
2022/07/11 02:01:08;;;;;;;46.03;30.55;;;;;;;22.27;70.22;99618.63;5080821;28;20040;-80
2022/07/11 02:03:34;;;;;;;40.50;28.88;;;;;;;22.32;70.39;99623.50;5095931;28;20036;-80
2022/07/11 02:06:00;;;;;;;43.30;27.15;;;;;;;22.36;69.92;99620.19;5096615;28;20072;-84
2022/07/11 02:08:27;;;;;;;39.10;25.67;;;;;;;22.32;69.70;99605.28;5095496;28;20044;-80
2022/07/11 02:10:52;;;;;;;42.88;26.00;;;;;;;22.42;69.80;99624.88;5113816;28;20516;-81
2022/07/11 02:13:20;;;;;;;38.80;24.85;;;;;;;22.34;69.76;99619.56;5095771;28;20057;-81
2022/07/11 02:15:51;;;;;;;40.92;23.08;;;;;;;22.44;69.60;99627.41;5114266;28;20059;-82
2022/07/11 02:18:18;;;;;;;43.42;23.63;;;;;;;22.54;68.95;99628.78;5079005;28;20386;-83
2022/07/11 02:20:48;;;;;;;28.67;21.80;;;;;;;22.54;68.74;99627.94;5078916;28;20039;-83
2022/07/11 02:23:15;;;;;;;34.22;23.58;;;;;;;22.58;68.69;99631.13;5079553;28;20493;-81
2022/07/11 02:25:41;;;;;;;30.23;20.98;;;;;;;22.51;68.78;99626.44;5095328;28;20400;-81
2022/07/11 02:28:08;;;;;;;31.83;21.38;;;;;;;22.57;68.49;99633.00;5078517;28;20040;-80
2022/07/11 02:30:35;;;;;;;27.15;20.73;;;;;;;22.67;68.09;99621.78;5113354;28;20043;-80
2022/07/11 02:33:01;;;;;;;31.42;19.98;;;;;;;22.75;67.75;99627.97;5095235;28;20047;-81
2022/07/11 02:35:26;;;;;;;37.50;20.98;;;;;;;22.83;66.94;99624.25;5078487;28;20562;-81
2022/07/11 02:37:52;;;;;;;38.00;21.88;;;;;;;22.94;66.57;99640.13;5114758;28;20136;-81
2022/07/11 02:40:18;;;;;;;46.30;22.77;;;;;;;23.07;66.16;99638.56;5078518;28;20490;-81
2022/07/11 02:42:45;;;;;;;38.38;21.52;;;;;;;23.16;65.99;99643.66;5112982;28;20039;-83
2022/07/11 02:45:11;;;;;;;39.47;21.25;;;;;;;23.27;65.75;99645.00;5095863;28;20051;-84
2022/07/11 02:47:39;;;;;;;45.30;23.08;;;;;;;23.30;65.61;99644.63;5079729;28;20039;-81
2022/07/11 02:50:11;;;;;;;83.70;23.60;;;;;;;23.43;64.48;99649.31;5078735;28;20057;-81
2022/07/11 02:52:37;;;;;;;54.90;20.80;;;;;;;23.50;64.35;99651.03;5116745;28;20089;-82
2022/07/11 02:55:03;;;;;;;37.70;22.77;;;;;;;23.52;64.25;99654.44;5097247;28;20044;-80
2022/07/11 02:57:29;;;;;;;53.45;22.70;;;;;;;23.52;64.06;99648.97;5095245;28;20137;-82
2022/07/11 02:59:55;;;;;;;65.30;25.67;;;;;;;23.61;63.57;99659.72;5097890;28;20046;-84
2022/07/11 03:02:21;;;;;;;50.08;25.30;;;;;;;23.69;63.06;99654.16;5098946;28;20074;-84
2022/07/11 03:04:46;;;;;;;55.95;23.42;;;;;;;23.80;63.11;99650.03;5062855;28;20078;-81
2022/07/11 03:07:12;;;;;;;50.88;23.10;;;;;;;23.88;62.32;99653.44;5096064;28;20482;-82
2022/07/11 03:09:38;;;;;;;66.93;25.17;;;;;;;24.03;62.32;99650.56;5115566;28;20528;-83
2022/07/11 03:12:04;;;;;;;61.63;24.70;;;;;;;24.22;61.92;99660.75;5096636;28;20043;-88
2022/07/11 03:14:30;;;;;;;66.03;25.48;;;;;;;24.40;61.47;99659.38;5117101;28;20040;-90
2022/07/11 03:16:56;;;;;;;83.30;25.05;;;;;;;24.63;60.92;99661.75;5114769;28;20043;-84
2022/07/11 03:19:22;;;;;;;77.53;25.40;;;;;;;24.78;59.94;99667.06;5112743;28;20055;-82
2022/07/11 03:21:47;;;;;;;83.55;27.35;;;;;;;24.99;59.64;99660.56;5097320;28;20043;-82
2022/07/11 03:24:13;;;;;;;58.53;24.58;;;;;;;25.19;58.46;99661.44;5098481;28;20379;-79
2022/07/11 03:26:39;;;;;;;74.75;25.50;;;;;;;25.35;58.37;99652.84;5098708;28;20065;-86
2022/07/11 03:29:07;;;;;;;66.90;24.25;;;;;;;25.63;57.64;99669.00;5081444;28;20394;-81
2022/07/11 03:31:33;;;;;;;64.40;21.02;;;;;;;25.80;57.03;99658.50;5081320;28;20039;-82
2022/07/11 03:33:59;;;;;;;52.92;19.40;;;;;;;26.09;56.37;99672.75;5080997;28;20039;-80
2022/07/11 03:36:26;;;;;;;54.22;15.50;;;;;;;26.22;54.19;99672.72;5081232;28;20124;-84
2022/07/11 03:38:52;;;;;;;27.40;13.23;;;;;;;26.34;53.57;99665.47;5098307;28;20067;-78
2022/07/11 03:41:17;;;;;;;25.77;12.05;;;;;;;26.47;52.82;99669.25;5116135;28;20089;-78
2022/07/11 03:43:43;;;;;;;15.07;11.07;;;;;;;26.63;51.91;99663.28;5081381;28;20090;-86
2022/07/11 03:46:09;;;;;;;15.80;9.07;;;;;;;26.69;51.14;99665.13;5094872;28;20421;-82
2022/07/11 03:48:35;;;;;;;14.77;8.93;;;;;;;26.75;50.67;99675.22;5043170;28;20139;-81
2022/07/11 03:51:01;;;;;;;14.73;9.75;;;;;;;26.76;49.76;99663.19;5075582;28;20084;-80
2022/07/11 03:53:27;;;;;;;13.52;9.73;;;;;;;26.77;48.28;99664.84;5057675;28;20040;-80
2022/07/11 03:55:53;;;;;;;14.85;9.50;;;;;;;26.70;49.26;99661.31;5057741;28;20063;-84
2022/07/11 03:58:19;;;;;;;15.98;9.05;;;;;;;26.87;49.37;99661.66;5057557;28;20525;-80
2022/07/11 04:00:45;;;;;;;29.05;9.57;;;;;;;27.05;48.97;99672.72;5075863;28;20037;-86
2022/07/11 04:03:10;;;;;;;16.23;10.13;;;;;;;27.22;49.00;99673.03;5075603;28;20127;-81
2022/07/11 04:05:36;;;;;;;19.35;9.57;;;;;;;27.21;48.43;99660.38;5075239;28;20044;-80
2022/07/11 04:08:02;;;;;;;15.95;9.77;;;;;;;27.24;48.77;99670.91;5023944;28;20159;-84
2022/07/11 04:10:28;;;;;;;14.18;9.25;;;;;;;27.39;48.55;99677.97;5057557;28;20036;-80
2022/07/11 04:12:54;;;;;;;10.23;8.77;;;;;;;27.57;48.41;99678.03;5057444;28;20144;-83
2022/07/11 04:15:19;;;;;;;11.32;8.57;;;;;;;27.74;47.70;99675.53;5040560;28;20049;-85
2022/07/11 04:17:45;;;;;;;11.07;8.43;;;;;;;27.82;46.58;99678.84;5075676;28;20053;-83
2022/07/11 04:20:11;;;;;;;11.77;7.93;;;;;;;27.83;45.81;99669.56;5040654;28;20089;-80
2022/07/11 04:22:37;;;;;;;12.63;7.78;;;;;;;27.92;45.04;99678.31;5057010;28;20048;-80
2022/07/11 04:25:03;;;;;;;8.85;7.10;;;;;;;27.95;44.94;99671.56;5040853;28;20044;-83
2022/07/11 04:27:29;;;;;;;12.55;7.07;;;;;;;27.97;44.82;99663.91;5040503;28;20054;-82
2022/07/11 04:29:55;;;;;;;9.07;6.72;;;;;;;28.02;43.89;99677.78;5056989;28;20402;-81
2022/07/11 04:32:21;;;;;;;12.85;6.50;;;;;;;28.00;43.83;99674.44;5056781;28;20040;-83
2022/07/11 04:34:46;;;;;;;10.60;6.57;;;;;;;27.94;43.00;99670.69;5027700;28;20044;-81
2022/07/11 04:37:12;;;;;;;12.52;6.47;;;;;;;27.94;43.03;99669.84;5069291;28;20068;-84
2022/07/11 04:39:39;;;;;;;11.80;6.20;;;;;;;27.98;42.43;99676.56;5053420;28;20048;-82
2022/07/11 04:42:06;;;;;;;13.32;7.32;;;;;;;27.97;43.00;99670.22;5020162;28;20044;-81
2022/07/11 04:44:33;;;;;;;15.13;7.20;;;;;;;27.99;43.95;99678.25;5054264;28;20411;-81
2022/07/11 04:46:58;;;;;;;13.05;7.05;;;;;;;28.13;43.79;99674.28;5053670;28;20044;-87
2022/07/11 04:49:24;;;;;;;13.88;7.22;;;;;;;28.16;42.98;99678.47;5054569;28;20045;-85
2022/07/11 04:51:50;;;;;;;10.57;6.65;;;;;;;28.08;42.62;99671.38;5052983;28;20496;-81
2022/07/11 04:54:16;;;;;;;9.52;6.55;;;;;;;28.12;42.81;99667.09;5054164;28;20132;-83
2022/07/11 04:56:42;;;;;;;10.70;6.32;;;;;;;28.29;42.68;99668.19;5052942;28;20128;-82
2022/07/11 04:59:08;;;;;;;8.23;6.25;;;;;;;28.41;42.83;99659.19;5036483;28;20488;-82
2022/07/11 05:01:34;;;;;;;17.73;6.70;;;;;;;28.62;42.84;99669.66;5052959;28;20388;-83
2022/07/11 05:04:01;;;;;;;9.65;6.22;;;;;;;28.67;42.83;99667.06;5052806;28;20056;-83
2022/07/11 05:06:27;;;;;;;11.10;5.72;;;;;;;28.76;42.18;99670.34;5054026;28;20049;-82
2022/07/11 05:08:54;;;;;;;8.43;5.57;;;;;;;28.74;40.60;99670.56;5052670;28;20110;-82
2022/07/11 05:11:20;;;;;;;11.43;5.13;;;;;;;28.67;40.09;99663.50;5054031;28;20128;-82
2022/07/11 05:13:46;;;;;;;14.00;5.10;;;;;;;28.70;39.93;99663.88;5036335;28;20060;-80
2022/07/11 05:16:12;;;;;;;10.00;5.40;;;;;;;28.77;39.33;99672.00;5054040;28;20163;-82
2022/07/11 05:18:38;;;;;;;10.48;4.82;;;;;;;28.79;39.20;99672.63;5052999;28;20400;-81
2022/07/11 05:21:05;;;;;;;8.98;5.15;;;;;;;28.88;39.67;99662.13;5069631;28;20033;-81
2022/07/11 05:23:31;;;;;;;16.80;5.20;;;;;;;29.01;39.36;99676.56;5053533;28;20059;-82
2022/07/11 05:25:57;;;;;;;10.10;5.53;;;;;;;29.03;38.39;99679.06;5053163;28;20049;-82
2022/07/11 05:28:23;;;;;;;5.55;4.93;;;;;;;29.09;38.56;99678.13;5035617;28;20487;-81
2022/07/11 05:30:48;;;;;;;8.73;4.72;;;;;;;29.09;38.16;99671.78;5065013;28;20036;-80
2022/07/11 05:33:14;;;;;;;10.85;5.05;;;;;;;29.21;38.64;99672.66;5061618;28;20051;-84
2022/07/11 05:35:41;;;;;;;10.55;5.25;;;;;;;29.36;38.92;99673.03;5058247;28;20052;-87
2022/07/11 05:38:06;;;;;;;7.72;4.75;;;;;;;29.41;38.79;99664.03;5073285;28;20422;-81
2022/07/11 05:40:32;;;;;;;8.40;5.45;;;;;;;29.42;37.89;99669.34;5055754;28;20037;-81
2022/07/11 05:42:58;;;;;;;10.50;5.10;;;;;;;29.31;38.38;99672.91;5038784;28;20106;-82
2022/07/11 05:45:23;;;;;;;6.68;5.53;;;;;;;29.46;38.84;99678.78;5073101;28;20461;-81
2022/07/11 05:47:49;;;;;;;9.45;5.80;;;;;;;29.58;39.11;99678.84;5038593;28;20072;-81
2022/07/11 05:50:15;;;;;;;10.02;5.88;;;;;;;29.72;39.43;99673.94;5055625;28;20412;-82
2022/07/11 05:52:41;;;;;;;8.95;5.75;;;;;;;29.57;38.97;99679.06;5038860;28;20048;-82
2022/07/11 05:55:07;;;;;;;8.80;5.90;;;;;;;29.59;39.22;99669.47;5038856;28;20040;-81
2022/07/11 05:57:33;;;;;;;12.27;5.53;;;;;;;29.82;38.99;99685.16;5055750;28;20048;-83
2022/07/11 05:59:59;;;;;;;12.00;5.85;;;;;;;30.00;39.15;99685.03;5038769;28;20445;-82
2022/07/11 06:02:24;;;;;;;8.50;5.60;;;;;;;30.18;38.41;99684.09;5052811;28;20036;-81
2022/07/11 06:04:50;;;;;;;7.85;5.30;;;;;;;30.19;38.57;99687.69;5093158;28;20048;-81
2022/07/11 06:08:40;;;;;;;7.20;4.90;;;;;;;30.34;37.91;99692.69;5075209;28;20478;-83
2022/07/11 06:10:02;;;;;;;9.23;5.40;;;;;;;30.49;37.91;99690.25;5058876;28;20043;-82
2022/07/11 06:12:28;;;;;;;10.32;5.50;;;;;;;30.61;37.82;99685.53;5041828;28;20140;-80
2022/07/11 06:14:55;;;;;;;14.02;6.75;;;;;;;30.72;38.04;99690.16;5041635;28;20036;-82
2022/07/11 06:17:21;;;;;;;10.75;5.05;;;;;;;30.82;37.88;99691.47;5058209;28;20032;-83
2022/07/11 06:19:47;;;;;;;9.30;5.78;;;;;;;30.90;37.04;99685.56;5048847;28;20060;-82
2022/07/11 06:22:14;;;;;;;13.63;5.55;;;;;;;30.76;36.99;99686.94;5055028;28;20490;-82
2022/07/11 06:24:39;;;;;;;12.55;5.47;;;;;;;30.69;37.47;99684.28;5054889;28;20048;-83
2022/07/11 06:27:05;;;;;;;7.78;4.97;;;;;;;30.63;37.33;99677.84;5064038;28;20048;-83
2022/07/11 06:29:31;;;;;;;7.00;5.07;;;;;;;30.58;36.91;99680.53;5075327;28;20071;-80
2022/07/11 06:31:57;;;;;;;11.02;5.40;;;;;;;30.56;37.04;99687.34;5058115;28;20097;-80
2022/07/11 06:34:23;;;;;;;14.48;5.20;;;;;;;30.52;37.42;99687.00;5074635;28;20101;-82
2022/07/11 06:36:48;;;;;;;11.15;5.28;;;;;;;30.60;37.38;99675.56;5058114;28;20098;-81
2022/07/11 06:39:15;;;;;;;11.57;5.18;;;;;;;30.76;37.25;99678.66;5093995;28;20455;-81
2022/07/11 06:41:40;;;;;;;11.18;5.20;;;;;;;30.99;37.47;99672.19;5063254;28;20075;-80
2022/07/11 06:44:06;;;;;;;11.30;5.18;;;;;;;31.08;36.73;99679.00;5054329;28;20071;-87
2022/07/11 06:46:32;;;;;;;17.77;6.50;;;;;;;31.26;36.36;99677.94;5054157;28;20041;-84
2022/07/11 06:48:58;;;;;;;10.82;5.10;;;;;;;31.49;35.89;99676.97;5054988;28;20036;-84
2022/07/11 06:51:24;;;;;;;10.73;4.50;;;;;;;31.62;35.74;99674.66;5072364;28;20067;-83
2022/07/11 06:53:51;;;;;;;8.70;4.70;;;;;;;31.80;36.16;99681.84;5054732;28;20055;-82
2022/07/11 06:56:17;;;;;;;8.85;4.45;;;;;;;31.94;35.20;99682.38;5039752;28;20040;-82
2022/07/11 06:58:43;;;;;;;7.75;4.68;;;;;;;31.91;34.02;99677.34;5058603;28;20048;-83
2022/07/11 07:01:09;;;;;;;9.48;4.70;;;;;;;31.84;34.49;99682.19;5042073;28;20414;-81
2022/07/11 07:03:35;;;;;;;10.32;5.10;;;;;;;32.00;34.46;99678.56;5058169;28;20076;-82
2022/07/11 07:06:02;;;;;;;13.60;4.95;;;;;;;31.88;34.57;99666.78;5058366;28;20044;-85
2022/07/11 07:08:29;;;;;;;8.43;4.40;;;;;;;32.08;34.55;99682.81;5088721;28;20044;-91
2022/07/11 07:10:56;;;;;;;9.63;4.53;;;;;;;31.31;34.85;99684.41;5061952;28;20135;-83
2022/07/11 07:13:25;;;;;;;9.50;5.07;;;;;;;31.24;35.11;99683.69;5096351;28;20047;-81
2022/07/11 07:15:52;;;;;;;6.20;4.50;;;;;;;31.38;34.80;99674.03;5096850;28;20051;-82
2022/07/11 07:18:18;;;;;;;10.85;5.00;;;;;;;31.49;34.90;99680.56;5078783;28;20510;-81
2022/07/11 07:20:44;;;;;;;12.25;5.18;;;;;;;31.78;34.56;99684.03;5088507;28;20048;-82
2022/07/11 07:23:09;;;;;;;5.18;4.60;;;;;;;31.99;33.95;99689.91;5057827;28;20044;-84
2022/07/11 07:25:35;;;;;;;8.23;3.95;;;;;;;31.97;32.75;99687.41;5057897;28;20131;-83
2022/07/11 07:28:01;;;;;;;8.02;4.28;;;;;;;32.02;32.62;99672.81;5075830;28;20123;-83
2022/07/11 07:30:27;;;;;;;6.97;4.13;;;;;;;31.69;32.46;99669.81;5058181;28;20174;-83
2022/07/11 07:32:53;;;;;;;5.57;4.63;;;;;;;31.46;33.34;99681.06;5041622;28;20040;-79
2022/07/11 07:35:19;;;;;;;7.93;4.50;;;;;;;31.66;33.39;99673.06;5076144;28;20059;-80
2022/07/11 07:37:45;;;;;;;6.00;4.30;;;;;;;31.60;33.11;99676.03;5040734;28;20075;-84
2022/07/11 07:40:10;;;;;;;7.25;4.20;;;;;;;31.76;32.94;99668.81;5026132;28;20036;-90
2022/07/11 07:42:36;;;;;;;8.07;4.00;;;;;;;32.12;32.83;99673.78;5061187;28;20040;-88
2022/07/11 07:45:02;;;;;;;5.93;4.13;;;;;;;32.57;32.39;99680.16;5075642;28;20036;-81
2022/07/11 07:47:30;;;;;;;10.50;4.05;;;;;;;32.75;31.88;99677.03;5041376;28;20037;-82
2022/07/11 07:49:56;;;;;;;5.18;3.88;;;;;;;32.81;31.03;99675.19;5058383;28;20068;-88
2022/07/11 07:52:22;;;;;;;9.13;3.97;;;;;;;33.02;31.15;99682.59;5041479;28;20476;-85
2022/07/11 07:54:47;;;;;;;5.70;3.97;;;;;;;33.42;30.92;99680.47;5043679;28;20108;-84
2022/07/11 07:57:13;;;;;;;6.88;3.97;;;;;;;33.81;29.69;99678.28;5041130;28;20033;-81
2022/07/11 07:59:40;;;;;;;6.45;3.60;;;;;;;33.89;28.81;99686.13;5057604;28;20105;-83
2022/07/11 08:02:06;;;;;;;7.13;3.55;;;;;;;33.97;27.54;99679.25;5025093;28;20566;-86
2022/07/11 08:04:32;;;;;;;6.95;3.25;;;;;;;33.40;27.70;99671.59;5024114;28;20117;-81
2022/07/11 08:06:59;;;;;;;8.25;3.40;;;;;;;33.41;28.15;99673.28;5074687;28;20495;-85
2022/07/11 08:09:25;;;;;;;4.70;3.60;;;;;;;33.56;29.03;99682.56;5057351;28;20039;-83
2022/07/11 08:11:51;;;;;;;7.10;3.60;;;;;;;34.02;28.52;99679.28;5080841;28;20524;-80
2022/07/11 08:14:17;;;;;;;8.25;4.47;;;;;;;34.55;28.15;99680.94;5097403;28;20052;-82
2022/07/11 08:16:43;;;;;;;5.75;3.75;;;;;;;34.69;27.98;99688.78;5080222;28;20043;-81
2022/07/11 08:19:11;;;;;;;12.02;4.30;;;;;;;34.79;27.86;99678.53;5097078;28;20417;-81
2022/07/11 08:21:37;;;;;;;9.13;3.60;;;;;;;35.26;28.05;99682.22;5079700;28;20036;-81
2022/07/11 08:24:03;;;;;;;12.10;4.00;;;;;;;35.59;27.25;99691.16;5095932;28;20417;-81
2022/07/11 08:26:30;;;;;;;6.95;3.72;;;;;;;35.51;27.51;99685.03;5080181;28;20398;-80
2022/07/11 08:28:56;;;;;;;9.77;3.58;;;;;;;35.14;27.38;99690.84;5115247;28;20561;-80
2022/07/11 08:31:23;;;;;;;5.80;3.55;;;;;;;35.31;27.68;99678.59;5097190;28;20035;-80
2022/07/11 08:33:50;;;;;;;6.45;3.53;;;;;;;35.50;26.69;99676.97;5079504;28;20050;-81
2022/07/11 08:36:16;;;;;;;7.82;3.78;;;;;;;35.36;25.69;99679.47;5096506;28;20493;-80
2022/07/11 08:38:46;;;;;;;6.00;3.53;;;;;;;35.61;25.94;99667.50;5095740;28;20046;-81
2022/07/11 08:41:13;;;;;;;15.00;4.07;;;;;;;35.99;27.37;99673.56;5063227;28;20035;-82
2022/07/11 08:43:40;;;;;;;17.33;4.50;;;;;;;35.97;27.49;99665.50;5079162;28;20054;-81
2022/07/11 08:46:08;;;;;;;14.63;4.80;;;;;;;35.92;26.65;99653.53;5096490;28;20176;-81
2022/07/11 08:48:34;;;;;;;9.82;4.53;;;;;;;35.93;26.83;99658.81;5096532;28;20070;-81
2022/07/11 08:51:01;;;;;;;14.68;4.80;;;;;;;35.59;26.88;99655.00;5097725;28;20081;-84
2022/07/11 08:53:27;;;;;;;10.32;3.95;;;;;;;35.52;27.24;99663.63;5115583;28;20051;-83
2022/07/11 08:55:54;;;;;;;10.25;3.70;;;;;;;35.56;26.49;99659.19;5115146;28;20436;-83
2022/07/11 08:58:21;;;;;;;9.65;3.33;;;;;;;36.03;26.40;99659.94;5115504;28;20043;-82
2022/07/11 09:00:47;;;;;;;5.07;3.30;;;;;;;36.53;25.61;99663.69;5096957;28;20047;-84
2022/07/11 09:03:15;;;;;;;8.27;3.40;;;;;;;36.64;25.08;99662.50;5097482;28;20334;-84
2022/07/11 09:05:41;;;;;;;6.68;3.20;;;;;;;36.85;25.60;99664.00;5073191;28;20051;-84
2022/07/11 09:08:07;;;;;;;10.93;3.40;;;;;;;37.05;24.70;99653.88;5065793;28;20040;-85
2022/07/11 09:10:33;;;;;;;4.20;3.10;;;;;;;36.82;24.00;99658.19;5088014;28;20044;-85
2022/07/11 09:13:01;;;;;;;5.38;3.38;;;;;;;36.06;24.45;99662.97;5079037;28;20044;-84
2022/07/11 09:15:32;;;;;;;5.53;3.28;;;;;;;36.33;24.89;99662.59;5056126;28;20045;-82
2022/07/11 09:17:58;;;;;;;8.13;3.45;;;;;;;36.51;24.34;99655.59;5055390;28;20442;-87
2022/07/11 09:20:23;;;;;;;5.10;3.08;;;;;;;36.68;24.18;99670.00;5073496;28;20105;-81
2022/07/11 09:25:42;;;;;;;7.35;3.22;;;;;;;37.52;23.13;99660.78;5039725;28;20044;-80
2022/07/11 09:28:08;;;;;;;7.97;2.92;;;;;;;37.81;22.72;99664.38;5057172;28;20052;-80
2022/07/11 09:30:43;;;;;;;6.45;2.92;;;;;;;38.11;22.60;99673.59;5082711;28;20071;-82
2022/07/11 09:33:12;;;;;;;5.55;3.47;;;;;;;38.19;22.63;99656.16;5065974;28;20039;-80
2022/07/11 09:35:40;;;;;;;3.53;3.08;;;;;;;38.31;22.72;99656.56;5075521;28;20074;-81
2022/07/11 09:38:10;;;;;;;9.40;3.65;;;;;;;38.51;22.28;99665.84;5092521;28;20074;-81
2022/07/11 09:40:37;;;;;;;14.55;3.55;;;;;;;38.28;22.36;99659.94;5076880;28;20044;-80
2022/07/11 09:43:04;;;;;;;5.53;3.15;;;;;;;37.83;22.13;99661.28;5092895;28;20127;-79
2022/07/11 09:45:35;;;;;;;5.10;3.15;;;;;;;37.16;22.66;99658.25;5091944;28;20086;-79
2022/07/11 09:48:09;;;;;;;10.90;3.30;;;;;;;36.72;23.76;99654.38;5091434;28;20037;-78
2022/07/11 09:50:35;;;;;;;9.35;3.58;;;;;;;36.47;24.38;99674.81;5064994;28;20040;-79
2022/07/11 09:53:16;;;;;;;8.18;3.35;;;;;;;36.16;25.07;99664.91;5074020;28;20044;-79
2022/07/11 09:55:46;;;;;;;9.02;3.65;;;;;;;35.90;25.04;99667.72;5038669;28;20075;-79
2022/07/11 09:58:14;;;;;;;7.35;3.78;;;;;;;35.47;25.02;99661.66;5055113;28;20067;-79
2022/07/11 10:00:40;;;;;;;;;;;;;;;35.09;25.83;99656.63;5040581;28;20090;-78
2022/07/11 10:03:07;;;;;;;8.90;3.85;;;;;;;34.62;26.46;99660.44;5055969;28;19916;-80
2022/07/11 10:05:34;;;;;;;7.68;3.67;;;;;;;35.01;26.57;99653.28;5055145;28;20364;-78
2022/07/11 10:08:01;;;;;;;4.90;3.55;;;;;;;35.32;25.69;99658.91;5055147;28;20048;-80
2022/07/11 10:10:28;;;;;;;8.88;3.88;;;;;;;35.82;25.70;99654.41;5021752;28;20044;-79
2022/07/11 10:12:55;;;;;;;5.78;3.15;;;;;;;35.56;24.27;99653.63;5038498;28;20525;-79
2022/07/11 10:15:32;;;;;;;4.45;3.22;;;;;;;34.44;25.71;99651.44;5021770;28;20040;-79
2022/07/11 10:18:10;;;;;;;5.20;3.05;;;;;;;34.13;25.97;99658.00;5038692;28;20044;-79
2022/07/11 10:21:00;;;;;;;4.93;3.40;;;;;;;33.86;25.78;99653.38;5055017;28;20090;-79
2022/07/11 10:23:52;;;;;;;8.75;3.47;;;;;;;33.82;26.18;99652.25;5038489;28;20491;-83
2022/07/11 10:26:18;;;;;;;7.50;3.58;;;;;;;33.76;25.86;99645.81;5023204;28;20045;-84
2022/07/11 10:28:48;;;;;;;10.27;3.70;;;;;;;34.55;25.78;99650.41;5024814;28;20052;-82
2022/07/11 10:31:27;;;;;;;6.68;3.67;;;;;;;35.02;25.60;99649.44;5038181;28;20076;-82
2022/07/11 10:34:18;;;;;;;6.90;3.30;;;;;;;35.11;25.37;99648.88;5055053;28;20051;-82
2022/07/11 10:36:45;;;;;;;4.68;3.00;;;;;;;34.96;25.29;99650.50;5038385;28;20067;-81
2022/07/11 10:39:17;;;;;;;9.05;3.20;;;;;;;35.43;24.50;99649.44;5023332;28;20066;-82
2022/07/11 10:41:44;;;;;;;6.57;3.38;;;;;;;35.41;24.46;99648.88;5065693;28;20134;-82
2022/07/11 10:44:11;;;;;;;4.25;3.00;;;;;;;35.36;24.82;99654.44;5041494;28;20044;-82
2022/07/11 10:46:37;;;;;;;4.28;3.30;;;;;;;35.90;24.17;99648.25;5091130;28;20040;-83
2022/07/11 10:49:15;;;;;;;7.00;3.60;;;;;;;37.02;23.34;99651.69;5055046;28;20135;-83
2022/07/11 10:51:41;;;;;;;4.90;3.30;;;;;;;38.13;22.21;99643.41;5071785;28;20564;-83
2022/07/11 10:54:26;;;;;;;4.55;3.30;;;;;;;39.07;20.76;99648.28;5055283;28;20048;-82
2022/07/11 10:57:19;;;;;;;5.55;3.28;;;;;;;40.18;19.94;99641.84;5055060;28;20131;-83
2022/07/11 11:00:00;;;;;;;5.03;3.10;;;;;;;40.59;19.81;99640.97;5021726;28;20525;-82
2022/07/11 11:02:30;;;;;;;4.50;3.30;;;;;;;40.44;19.94;99644.09;5072321;28;20526;-82
2022/07/11 11:05:00;;;;;;;4.43;3.03;;;;;;;40.75;18.75;99635.84;5038219;28;20036;-83
2022/07/11 11:07:40;;;;;;;4.90;2.90;;;;;;;41.25;18.60;99636.59;5084748;28;20189;-81
2022/07/11 11:10:19;;;;;;;7.35;3.20;;;;;;;41.06;19.14;99627.53;5074677;28;20506;-82
2022/07/11 11:13:07;;;;;;;4.93;3.20;;;;;;;41.89;18.10;99643.94;5057810;28;20043;-82
2022/07/11 11:15:40;;;;;;;3.53;2.90;;;;;;;42.36;17.81;99635.88;5092479;28;20398;-82
2022/07/11 11:18:24;;;;;;;4.72;2.90;;;;;;;42.78;17.19;99625.03;5040413;28;20082;-82
2022/07/11 11:20:59;;;;;;;3.92;2.90;;;;;;;41.00;18.20;99632.47;5063533;28;20041;-82
2022/07/11 11:23:33;;;;;;;7.50;2.60;;;;;;;39.91;18.64;99639.00;5040529;28;20522;-88
2022/07/11 11:26:15;;;;;;;4.07;2.83;;;;;;;40.95;18.44;99637.31;5061056;28;20048;-86
2022/07/11 11:28:58;;;;;;;3.70;2.97;;;;;;;41.72;17.93;99616.59;5055299;28;20052;-83